Time;durP1;ratioP1;P1;durP2;ratioP2;P2;SDS_P1;SDS_P2;PMS_P1;PMS_P2;Temp;Humidity;BMP_temperature;BMP_pressure;BME280_temperature;BME280_humidity;BME280_pressure;Samples;Min_cycle;Max_cycle;Signal;HPM_P1;HPM_P2
2022/07/27 00:00:33;;;;;;;4.82;1.38;;;14.60;99.90;;;;;;5077194;28;20134;-76
2022/07/27 00:02:59;;;;;;;4.95;1.40;;;14.60;99.90;;;;;;5094005;28;20048;-75
2022/07/27 00:05:25;;;;;;;4.53;1.50;;;14.50;99.90;;;;;;5059852;28;20414;-75
2022/07/27 00:07:50;;;;;;;8.00;1.60;;;14.50;99.90;;;;;;5060025;28;20498;-75
2022/07/27 00:10:16;;;;;;;6.63;1.50;;;14.50;99.90;;;;;;5076687;28;20052;-75
2022/07/27 00:12:42;;;;;;;7.55;2.00;;;14.40;99.90;;;;;;5076374;28;20056;-75
2022/07/27 00:15:09;;;;;;;5.70;1.60;;;14.40;99.90;;;;;;5076820;28;20059;-75
2022/07/27 00:17:35;;;;;;;5.45;1.70;;;14.40;99.90;;;;;;5069659;28;20084;-74
2022/07/27 00:20:01;;;;;;;5.75;1.77;;;14.30;99.90;;;;;;5073479;28;20050;-74
2022/07/27 00:22:27;;;;;;;6.80;2.10;;;14.30;99.90;;;;;;5077794;28;20386;-75
2022/07/27 00:24:52;;;;;;;5.65;1.70;;;14.20;99.90;;;;;;5076769;28;20044;-75
2022/07/27 00:27:18;;;;;;;5.68;1.50;;;14.10;99.90;;;;;;5056930;28;20055;-76
2022/07/27 00:29:44;;;;;;;5.60;1.48;;;14.10;99.90;;;;;;5057157;28;20388;-76
2022/07/27 00:32:11;;;;;;;9.07;2.00;;;14.20;99.90;;;;;;5075580;28;20066;-76
2022/07/27 00:34:37;;;;;;;5.15;1.60;;;14.10;99.90;;;;;;5058625;28;20167;-76
2022/07/27 00:37:03;;;;;;;4.65;1.30;;;14.10;99.90;;;;;;5057516;28;20040;-76
2022/07/27 00:39:29;;;;;;;5.35;1.67;;;14.10;99.90;;;;;;5058674;28;20035;-75
2022/07/27 00:41:55;;;;;;;5.05;1.75;;;14.10;99.90;;;;;;5058127;28;20094;-75
2022/07/27 00:44:25;;;;;;;5.90;1.77;;;14.10;99.90;;;;;;5091643;28;20047;-75
2022/07/27 00:46:51;;;;;;;4.90;1.90;;;14.00;99.90;;;;;;5074899;28;20487;-76
2022/07/27 00:49:17;;;;;;;8.05;2.50;;;14.00;99.90;;;;;;5057496;28;20387;-75
2022/07/27 00:51:43;;;;;;;6.50;2.30;;;13.90;99.90;;;;;;5073253;28;20048;-74
2022/07/27 00:54:10;;;;;;;6.63;2.25;;;13.90;99.90;;;;;;5073725;28;20047;-74
2022/07/27 00:56:36;;;;;;;6.75;2.13;;;13.80;99.90;;;;;;5075027;28;20039;-75
2022/07/27 00:59:02;;;;;;;7.65;2.30;;;13.80;99.90;;;;;;5071418;28;20051;-75
2022/07/27 01:01:27;;;;;;;9.05;2.38;;;13.80;99.90;;;;;;5092132;28;20044;-75
2022/07/27 01:03:53;;;;;;;6.40;2.17;;;13.80;99.90;;;;;;5092447;28;20063;-76
2022/07/27 01:06:19;;;;;;;6.80;2.20;;;13.80;99.90;;;;;;5072766;28;20538;-73
2022/07/27 01:08:45;;;;;;;7.25;2.30;;;13.80;99.90;;;;;;5090673;28;20067;-76
2022/07/27 01:11:11;;;;;;;8.20;2.50;;;13.80;99.90;;;;;;5072235;28;20477;-74
2022/07/27 01:13:37;;;;;;;7.07;2.10;;;13.70;99.90;;;;;;5041930;28;20098;-75
2022/07/27 01:16:05;;;;;;;7.97;2.10;;;13.70;99.90;;;;;;5072616;28;20048;-75
2022/07/27 01:18:37;;;;;;;5.35;2.20;;;13.80;99.90;;;;;;5074369;28;20135;-75
2022/07/27 01:21:05;;;;;;;6.05;2.10;;;13.80;99.90;;;;;;5072477;28;20075;-76
2022/07/27 01:23:32;;;;;;;6.00;2.13;;;13.80;99.90;;;;;;5073606;28;20056;-76
2022/07/27 01:25:59;;;;;;;7.40;2.40;;;13.80;99.90;;;;;;5058102;28;20068;-75
2022/07/27 01:28:25;;;;;;;7.75;2.15;;;13.80;99.90;;;;;;5072748;28;20083;-75
2022/07/27 01:30:50;;;;;;;7.43;2.20;;;13.80;99.90;;;;;;5073510;28;20456;-75
2022/07/27 01:33:16;;;;;;;6.97;2.20;;;13.70;99.90;;;;;;5071549;28;20064;-75
2022/07/27 01:35:42;;;;;;;6.15;2.22;;;13.80;99.90;;;;;;5090976;28;20437;-75
2022/07/27 01:38:09;;;;;;;6.63;1.65;;;13.80;99.90;;;;;;5056130;28;20047;-75
2022/07/27 01:40:35;;;;;;;8.38;2.05;;;13.80;99.90;;;;;;5075004;28;20040;-76
2022/07/27 01:43:02;;;;;;;7.22;2.10;;;13.80;99.90;;;;;;5042275;28;20044;-75
2022/07/27 01:45:28;;;;;;;7.50;2.40;;;13.90;99.90;;;;;;5074390;28;20395;-75
2022/07/27 01:47:54;;;;;;;6.03;1.75;;;13.80;99.90;;;;;;5050502;28;20044;-75
2022/07/27 01:50:20;;;;;;;6.30;1.92;;;13.90;99.90;;;;;;5090307;28;20032;-75
2022/07/27 01:52:45;;;;;;;6.70;1.98;;;13.90;99.90;;;;;;5073858;28;20098;-75
2022/07/27 01:55:11;;;;;;;8.38;2.10;;;13.90;99.90;;;;;;5087577;28;20040;-76
2022/07/27 01:57:37;;;;;;;5.82;1.90;;;13.90;99.90;;;;;;5071097;28;20368;-75
2022/07/27 02:00:06;;;;;;;7.78;1.90;;;13.90;99.90;;;;;;5074822;28;20105;-75
2022/07/27 02:02:32;;;;;;;6.20;1.83;;;13.90;99.90;;;;;;5073343;28;20499;-75
2022/07/27 02:04:58;;;;;;;5.68;1.60;;;13.80;99.90;;;;;;5075185;28;20113;-74
2022/07/27 02:07:23;;;;;;;6.07;1.85;;;13.90;99.90;;;;;;5092018;28;20525;-76
2022/07/27 02:09:49;;;;;;;6.75;2.10;;;13.90;99.90;;;;;;5086560;28;20056;-76
2022/07/27 02:14:59;;;;;;;7.40;1.95;;;13.80;99.90;;;;;;5092891;28;20502;-75
2022/07/27 02:17:26;;;;;;;5.28;1.60;;;13.80;99.90;;;;;;5074021;28;20051;-76
2022/07/27 02:19:51;;;;;;;5.30;1.50;;;13.80;99.90;;;;;;5092169;28;20046;-76
2022/07/27 02:22:17;;;;;;;6.10;1.65;;;13.80;99.90;;;;;;5092360;28;20115;-76
2022/07/27 02:24:43;;;;;;;6.47;1.40;;;13.80;99.90;;;;;;5057593;28;20040;-76
2022/07/27 02:27:08;;;;;;;4.65;1.45;;;13.80;99.90;;;;;;5092887;28;20052;-75
2022/07/27 02:29:34;;;;;;;5.57;1.50;;;13.70;99.90;;;;;;5074101;28;20055;-76
2022/07/27 02:32:00;;;;;;;5.28;1.52;;;13.70;99.90;;;;;;5092286;28;20044;-75
2022/07/27 02:34:26;;;;;;;4.28;1.30;;;13.70;99.90;;;;;;5074053;28;20502;-74
2022/07/27 02:36:52;;;;;;;4.60;1.30;;;13.70;99.90;;;;;;5057506;28;20044;-76
2022/07/27 02:39:18;;;;;;;5.20;1.38;;;13.70;99.90;;;;;;5073756;28;20078;-76
2022/07/27 02:41:45;;;;;;;4.47;1.42;;;13.70;99.90;;;;;;5091617;28;20483;-76
2022/07/27 02:44:13;;;;;;;6.57;1.70;;;13.70;99.90;;;;;;5055295;28;20090;-75
2022/07/27 02:46:39;;;;;;;5.82;1.30;;;13.60;99.90;;;;;;5057897;28;20044;-75
2022/07/27 02:49:05;;;;;;;6.05;1.50;;;13.60;99.90;;;;;;5046303;28;20048;-76
2022/07/27 02:51:32;;;;;;;4.53;1.50;;;13.60;99.90;;;;;;5088601;28;20056;-76
2022/07/27 02:53:58;;;;;;;3.78;1.30;;;13.60;99.90;;;;;;5057764;28;20071;-76
2022/07/27 02:56:24;;;;;;;5.72;1.50;;;13.60;99.90;;;;;;5077561;28;20119;-76
2022/07/27 02:58:49;;;;;;;5.00;1.30;;;13.60;99.90;;;;;;5073940;28;20119;-75
2022/07/27 03:01:15;;;;;;;5.63;1.30;;;13.60;99.90;;;;;;5093150;28;20067;-76
2022/07/27 03:03:41;;;;;;;4.55;1.30;;;13.50;99.90;;;;;;5060550;28;20047;-75
2022/07/27 03:06:07;;;;;;;4.10;1.30;;;13.50;99.90;;;;;;5077645;28;20044;-75
2022/07/27 03:08:34;;;;;;;5.45;1.30;;;13.50;99.90;;;;;;5086117;28;20069;-75
2022/07/27 03:10:59;;;;;;;4.65;1.25;;;13.50;99.90;;;;;;5064234;28;20048;-75
2022/07/27 03:13:25;;;;;;;4.57;1.30;;;13.50;99.90;;;;;;5061198;28;20109;-75
2022/07/27 03:15:51;;;;;;;4.90;1.20;;;13.50;99.90;;;;;;5095424;28;20059;-75
2022/07/27 03:18:17;;;;;;;5.45;1.25;;;13.40;99.90;;;;;;5043720;28;20048;-74
2022/07/27 03:20:43;;;;;;;5.47;1.60;;;13.40;99.90;;;;;;5077994;28;20040;-75
2022/07/27 03:23:08;;;;;;;5.35;1.83;;;13.40;99.90;;;;;;5077196;28;20122;-75
2022/07/27 03:25:34;;;;;;;5.03;1.50;;;13.30;99.90;;;;;;5061473;28;20097;-75
2022/07/27 03:28:00;;;;;;;4.13;1.40;;;13.30;99.90;;;;;;5076982;28;20044;-75
2022/07/27 03:30:25;;;;;;;4.35;1.40;;;13.20;99.90;;;;;;5078003;28;20074;-75
2022/07/27 03:32:51;;;;;;;5.65;1.67;;;13.20;99.90;;;;;;5059741;28;20060;-75
2022/07/27 03:35:17;;;;;;;4.90;1.60;;;13.20;99.90;;;;;;5095370;28;20088;-75
2022/07/27 03:37:43;;;;;;;4.95;1.70;;;13.10;99.90;;;;;;5043982;28;20048;-75
2022/07/27 03:40:10;;;;;;;4.70;1.60;;;13.10;99.90;;;;;;5095913;28;20036;-75
2022/07/27 03:42:35;;;;;;;5.95;1.40;;;13.10;99.90;;;;;;5077235;28;20094;-75
2022/07/27 03:45:01;;;;;;;6.63;2.00;;;13.00;99.90;;;;;;5095390;28;20071;-75
2022/07/27 03:47:27;;;;;;;5.47;1.95;;;13.00;99.90;;;;;;5076492;28;20048;-75
2022/07/27 03:49:53;;;;;;;5.47;1.70;;;13.00;99.90;;;;;;5094954;28;20039;-75
2022/07/27 03:52:19;;;;;;;6.63;2.17;;;12.90;99.90;;;;;;5076428;28;20122;-75
2022/07/27 03:54:46;;;;;;;5.20;1.75;;;12.90;99.90;;;;;;5074912;28;20051;-75
2022/07/27 03:57:12;;;;;;;7.93;2.38;;;12.90;99.90;;;;;;5060275;28;20040;-75
2022/07/27 03:59:38;;;;;;;7.90;2.42;;;12.90;99.90;;;;;;5060480;28;20040;-76
2022/07/27 04:02:04;;;;;;;6.72;1.92;;;12.90;99.90;;;;;;5076461;28;20052;-75
2022/07/27 04:04:30;;;;;;;7.07;2.63;;;12.80;99.90;;;;;;5076174;28;20070;-74
2022/07/27 04:06:56;;;;;;;8.07;3.58;;;12.80;99.90;;;;;;5077016;28;20085;-74
2022/07/27 04:09:22;;;;;;;9.57;2.75;;;12.80;99.90;;;;;;5076368;28;20448;-75
2022/07/27 04:11:48;;;;;;;6.32;1.85;;;12.70;99.90;;;;;;5060136;28;20044;-75
2022/07/27 04:14:13;;;;;;;6.38;2.40;;;12.70;99.90;;;;;;5075360;28;20032;-74
2022/07/27 04:16:40;;;;;;;8.23;2.47;;;12.80;99.90;;;;;;5076516;28;20048;-75
2022/07/27 04:19:06;;;;;;;6.63;2.70;;;12.80;99.90;;;;;;5058291;28;20047;-75
2022/07/27 04:21:33;;;;;;;5.97;2.40;;;12.70;99.90;;;;;;5077067;28;20082;-75
2022/07/27 04:23:59;;;;;;;10.00;3.28;;;12.70;99.90;;;;;;5059925;28;20093;-74
2022/07/27 04:26:25;;;;;;;7.85;3.08;;;12.70;99.90;;;;;;5076368;28;20052;-73
2022/07/27 04:28:51;;;;;;;6.07;2.60;;;12.80;99.90;;;;;;5055963;28;20052;-75
2022/07/27 04:31:16;;;;;;;8.10;2.88;;;12.80;99.90;;;;;;5073805;28;20050;-74
2022/07/27 04:33:42;;;;;;;9.93;3.05;;;12.80;99.90;;;;;;5093429;28;20063;-74
2022/07/27 04:36:08;;;;;;;11.18;3.17;;;12.80;99.90;;;;;;5076043;28;20173;-75
2022/07/27 04:38:34;;;;;;;7.68;2.92;;;12.80;99.90;;;;;;5059107;28;20040;-75
2022/07/27 04:41:00;;;;;;;9.10;3.15;;;12.90;99.90;;;;;;5076299;28;20044;-74
2022/07/27 04:43:25;;;;;;;7.35;2.75;;;12.90;99.90;;;;;;5075027;28;20392;-75
2022/07/27 04:45:51;;;;;;;6.88;2.75;;;13.00;99.90;;;;;;5076576;28;20059;-75
2022/07/27 04:48:17;;;;;;;6.75;2.70;;;13.00;99.90;;;;;;5060494;28;20044;-75
2022/07/27 04:50:45;;;;;;;7.20;3.00;;;13.00;99.90;;;;;;5076200;28;20079;-74
2022/07/27 04:53:12;;;;;;;6.45;2.80;;;13.10;99.90;;;;;;5074825;28;20099;-74
2022/07/27 04:55:43;;;;;;;7.68;2.70;;;13.10;99.90;;;;;;5059428;28;20055;-74
2022/07/27 04:58:09;;;;;;;7.85;2.90;;;13.10;99.90;;;;;;5075294;28;20044;-74
2022/07/27 05:00:35;;;;;;;7.03;2.75;;;13.10;99.90;;;;;;5074743;28;20052;-76
2022/07/27 05:03:00;;;;;;;7.55;2.67;;;13.20;99.90;;;;;;5073916;28;20056;-75
2022/07/27 05:05:26;;;;;;;8.05;2.85;;;13.20;99.90;;;;;;5061558;28;20047;-74
2022/07/27 05:07:53;;;;;;;8.55;3.30;;;13.20;99.90;;;;;;5071905;28;20041;-75
2022/07/27 05:10:19;;;;;;;6.97;2.70;;;13.20;99.90;;;;;;5049226;28;20432;-74
2022/07/27 05:12:45;;;;;;;7.40;2.22;;;13.30;99.90;;;;;;5052815;28;20063;-74
2022/07/27 05:15:10;;;;;;;9.77;2.70;;;13.30;99.90;;;;;;5055940;28;20048;-75
2022/07/27 05:17:36;;;;;;;7.45;2.95;;;13.40;99.90;;;;;;5068816;28;20048;-74
2022/07/27 05:20:03;;;;;;;7.15;2.35;;;13.50;99.90;;;;;;5064284;28;20475;-75
2022/07/27 05:22:29;;;;;;;9.20;2.80;;;13.50;99.90;;;;;;5066321;28;20087;-76
2022/07/27 05:24:55;;;;;;;6.63;2.50;;;13.50;99.90;;;;;;5048876;28;20068;-75
2022/07/27 05:27:20;;;;;;;7.85;2.58;;;13.70;99.90;;;;;;5072869;28;20048;-75
2022/07/27 05:29:46;;;;;;;7.03;2.30;;;13.70;99.90;;;;;;5091940;28;20048;-75
2022/07/27 05:32:12;;;;;;;5.35;1.92;;;13.80;99.90;;;;;;5075097;28;20044;-75
2022/07/27 05:34:38;;;;;;;7.80;2.45;;;13.80;99.90;;;;;;5073935;28;20142;-75
2022/07/27 05:37:03;;;;;;;7.38;2.50;;;13.90;99.90;;;;;;5083704;28;20052;-75
2022/07/27 05:39:29;;;;;;;7.45;2.50;;;13.90;99.90;;;;;;5068719;28;20051;-76
2022/07/27 05:41:55;;;;;;;9.18;2.67;;;14.00;99.90;;;;;;5088200;28;20074;-76
2022/07/27 05:44:21;;;;;;;9.43;2.38;;;14.00;99.90;;;;;;5075035;28;20056;-74
2022/07/27 05:46:46;;;;;;;7.43;2.25;;;14.00;99.90;;;;;;5091792;28;20133;-75
2022/07/27 05:49:12;;;;;;;7.10;2.55;;;14.10;99.90;;;;;;5070034;28;20102;-75
2022/07/27 05:51:38;;;;;;;7.55;2.30;;;14.10;99.90;;;;;;5072453;28;20160;-75
2022/07/27 05:54:03;;;;;;;9.77;2.60;;;14.30;99.90;;;;;;5074653;28;20174;-76
2022/07/27 05:56:29;;;;;;;8.38;2.13;;;14.40;99.90;;;;;;5073251;28;20048;-76
2022/07/27 05:58:55;;;;;;;7.18;2.50;;;14.50;99.90;;;;;;5070842;28;20048;-75
2022/07/27 06:01:21;;;;;;;7.25;2.30;;;14.60;99.90;;;;;;5072515;28;20062;-75
2022/07/27 06:03:47;;;;;;;7.85;2.50;;;14.70;99.90;;;;;;5055971;28;20415;-76
2022/07/27 06:08:57;;;;;;;7.47;2.40;;;14.90;99.90;;;;;;5067611;28;20114;-76
2022/07/27 06:11:22;;;;;;;8.85;2.60;;;14.90;99.90;;;;;;5043299;28;20080;-76
2022/07/27 06:13:49;;;;;;;6.68;2.28;;;15.00;99.90;;;;;;5090712;28;20528;-75
2022/07/27 06:16:15;;;;;;;9.18;2.30;;;15.10;99.90;;;;;;5061341;28;21243;-76
2022/07/27 06:18:41;;;;;;;8.75;2.40;;;15.30;99.90;;;;;;5050593;28;20052;-75
2022/07/27 06:21:07;;;;;;;7.90;2.20;;;15.40;99.90;;;;;;5083114;28;20116;-74
2022/07/27 06:23:33;;;;;;;7.95;2.33;;;15.50;99.90;;;;;;5065186;28;20072;-75
2022/07/27 06:25:59;;;;;;;7.13;2.30;;;15.50;99.90;;;;;;5049769;28;20067;-76
2022/07/27 06:28:24;;;;;;;8.73;2.00;;;15.60;99.90;;;;;;5063780;28;20123;-75
2022/07/27 06:30:52;;;;;;;7.90;2.33;;;15.60;99.90;;;;;;5084838;28;20102;-75
2022/07/27 06:33:26;;;;;;;6.43;2.00;;;15.70;99.90;;;;;;5024886;28;20356;-77
2022/07/27 06:35:53;;;;;;;7.07;1.98;;;15.70;99.90;;;;;;5056416;28;20524;-74
2022/07/27 06:38:20;;;;;;;7.03;2.00;;;15.70;99.90;;;;;;5070651;28;20048;-76
2022/07/27 06:40:51;;;;;;;10.27;2.00;;;15.80;99.90;;;;;;5069290;28;20031;-75
2022/07/27 06:43:27;;;;;;;7.15;1.83;;;15.80;99.90;;;;;;5091468;28;20150;-74
2022/07/27 06:45:53;;;;;;;8.13;2.05;;;15.80;99.90;;;;;;5064117;28;20040;-74
2022/07/27 06:48:20;;;;;;;8.88;2.15;;;15.80;99.90;;;;;;5091856;28;20051;-72
2022/07/27 06:50:46;;;;;;;8.07;2.00;;;15.80;99.90;;;;;;5074958;28;20044;-76
2022/07/27 06:53:12;;;;;;;7.68;2.00;;;15.80;99.90;;;;;;5095033;28;20530;-75
2022/07/27 06:55:38;;;;;;;9.50;2.20;;;15.80;99.90;;;;;;5061491;28;20149;-74
2022/07/27 06:58:04;;;;;;;8.25;1.88;;;15.90;99.90;;;;;;5056513;28;20126;-76
2022/07/27 07:00:30;;;;;;;9.45;2.05;;;15.90;99.90;;;;;;5077618;28;20040;-75
2022/07/27 07:03:05;;;;;;;7.63;1.85;;;15.90;99.90;;;;;;5095060;28;20044;-76
2022/07/27 07:05:33;;;;;;;6.53;2.00;;;15.90;99.90;;;;;;5060896;28;20475;-75
2022/07/27 07:08:00;;;;;;;7.78;2.05;;;15.90;99.90;;;;;;5077673;28;20055;-75
2022/07/27 07:10:26;;;;;;;8.90;2.03;;;15.90;99.90;;;;;;5081148;28;20040;-75
2022/07/27 07:12:55;;;;;;;6.55;1.77;;;15.90;99.90;;;;;;5094997;28;20119;-74
2022/07/27 07:15:25;;;;;;;8.60;1.70;;;15.90;99.90;;;;;;5078301;28;20450;-74
2022/07/27 07:17:52;;;;;;;7.45;1.90;;;16.00;99.90;;;;;;5059890;28;20040;-76
2022/07/27 07:20:18;;;;;;;6.30;1.52;;;15.90;99.90;;;;;;5077698;28;20123;-74
2022/07/27 07:22:44;;;;;;;6.07;1.67;;;16.00;99.90;;;;;;5077250;28;20114;-74
2022/07/27 07:25:09;;;;;;;6.65;1.58;;;15.90;99.90;;;;;;5077531;28;20511;-74
2022/07/27 07:27:35;;;;;;;6.65;1.40;;;15.80;99.90;;;;;;5077006;28;20052;-72
2022/07/27 07:30:01;;;;;;;6.63;1.65;;;15.80;99.90;;;;;;5065235;28;20079;-74
2022/07/27 07:32:27;;;;;;;5.95;1.45;;;15.70;99.90;;;;;;5076439;28;20094;-74
2022/07/27 07:34:53;;;;;;;5.20;1.40;;;15.70;99.90;;;;;;5061501;28;20444;-74
2022/07/27 07:37:19;;;;;;;5.72;1.33;;;15.60;99.90;;;;;;5055745;28;20106;-74
2022/07/27 07:39:46;;;;;;;8.52;1.25;;;15.70;99.90;;;;;;5077627;28;20042;-74
2022/07/27 07:42:12;;;;;;;5.13;1.25;;;15.90;99.90;;;;;;5077458;28;20047;-74
2022/07/27 07:44:37;;;;;;;8.05;1.42;;;16.00;99.90;;;;;;5076837;28;20052;-74
2022/07/27 07:47:03;;;;;;;5.20;1.33;;;15.90;99.90;;;;;;5059100;28;20080;-74
2022/07/27 07:49:29;;;;;;;6.00;1.48;;;16.00;99.90;;;;;;5059452;28;20152;-74
2022/07/27 07:51:55;;;;;;;5.03;1.20;;;16.20;99.90;;;;;;5094210;28;20112;-74
2022/07/27 07:54:21;;;;;;;5.28;1.33;;;16.40;99.90;;;;;;5076406;28;20090;-73
2022/07/27 07:56:46;;;;;;;6.10;1.40;;;16.60;99.90;;;;;;5074991;28;20032;-73
2022/07/27 07:59:12;;;;;;;6.88;1.50;;;16.80;99.90;;;;;;5038207;28;20044;-73
2022/07/27 08:01:38;;;;;;;6.50;1.48;;;17.00;99.90;;;;;;5068064;28;20047;-73
2022/07/27 08:04:03;;;;;;;5.93;1.30;;;17.20;99.90;;;;;;5075511;28;20052;-73
2022/07/27 08:06:29;;;;;;;6.13;1.40;;;17.50;99.90;;;;;;5060282;28;20072;-74
2022/07/27 08:08:55;;;;;;;7.75;1.50;;;17.90;99.90;;;;;;5076221;28;20510;-75
2022/07/27 08:11:21;;;;;;;6.18;1.25;;;18.20;99.90;;;;;;5076880;28;20086;-73
2022/07/27 08:13:46;;;;;;;5.80;1.35;;;18.50;99.90;;;;;;5076259;28;20055;-73
2022/07/27 08:16:13;;;;;;;5.90;1.30;;;18.70;99.90;;;;;;5076702;28;20032;-73
2022/07/27 08:18:38;;;;;;;7.03;1.42;;;18.80;99.90;;;;;;5059226;28;20047;-73
2022/07/27 08:21:04;;;;;;;7.50;1.50;;;19.00;99.90;;;;;;5094233;28;20044;-73
2022/07/27 08:23:32;;;;;;;6.65;1.40;;;19.20;98.70;;;;;;5072875;28;20527;-73
2022/07/27 08:25:58;;;;;;;6.57;1.42;;;19.50;96.80;;;;;;5071530;28;20501;-73
2022/07/27 08:28:25;;;;;;;7.60;1.35;;;19.70;96.10;;;;;;5073202;28;20048;-73
2022/07/27 08:30:51;;;;;;;5.45;1.40;;;20.00;95.50;;;;;;5072303;28;20086;-74
2022/07/27 08:33:17;;;;;;;6.97;1.40;;;20.10;95.10;;;;;;5058357;28;20055;-74
2022/07/27 08:35:44;;;;;;;6.57;1.40;;;20.10;93.70;;;;;;5094184;28;20060;-74
2022/07/27 08:38:10;;;;;;;7.32;1.48;;;20.30;93.20;;;;;;5075909;28;20115;-72
2022/07/27 08:40:37;;;;;;;4.68;1.30;;;20.90;94.20;;;;;;5076017;28;20036;-74
2022/07/27 08:43:04;;;;;;;6.72;1.30;;;21.10;90.50;;;;;;5075622;28;20047;-72
2022/07/27 08:45:29;;;;;;;8.27;1.50;;;21.40;91.40;;;;;;5076610;28;20052;-74
2022/07/27 08:47:55;;;;;;;7.32;1.42;;;21.70;87.30;;;;;;5074591;28;20086;-74
2022/07/27 08:50:23;;;;;;;6.50;1.38;;;21.70;84.60;;;;;;5076121;28;20494;-74
2022/07/27 08:52:56;;;;;;;6.85;1.40;;;21.80;76.60;;;;;;5075715;28;20483;-73
2022/07/27 08:55:22;;;;;;;7.18;1.58;;;21.80;75.80;;;;;;5076180;28;20039;-76
2022/07/27 08:57:50;;;;;;;4.00;1.20;;;21.80;75.70;;;;;;5042293;28;20087;-74
2022/07/27 09:00:16;;;;;;;5.25;1.45;;;21.90;75.50;;;;;;5075566;28;20044;-74
2022/07/27 09:02:43;;;;;;;5.82;1.10;;;22.00;74.70;;;;;;5074822;28;20479;-73
2022/07/27 09:05:09;;;;;;;6.57;1.42;;;22.10;71.20;;;;;;5075834;28;20048;-73
2022/07/27 09:07:36;;;;;;;4.93;1.30;;;22.30;74.50;;;;;;5075128;28;20043;-71
2022/07/27 09:10:02;;;;;;;5.22;1.30;;;22.70;74.40;;;;;;5061983;28;20073;-75
2022/07/27 09:12:29;;;;;;;6.97;1.40;;;22.60;71.50;;;;;;5075081;28;20048;-73
2022/07/27 09:15:10;;;;;;;6.40;1.35;;;22.50;73.10;;;;;;5076016;28;20090;-76
2022/07/27 09:17:38;;;;;;;6.82;1.40;;;22.70;70.80;;;;;;5074564;28;20570;-73
2022/07/27 09:20:10;;;;;;;6.32;1.50;;;22.20;71.60;;;;;;5075035;28;20051;-73
2022/07/27 09:22:55;;;;;;;6.45;1.42;;;21.40;72.70;;;;;;5075013;28;20060;-76
2022/07/27 09:25:27;;;;;;;5.47;1.40;;;20.30;78.90;;;;;;5093252;28;20055;-71
2022/07/27 09:27:54;;;;;;;;;;;19.70;84.10;;;;;;5075392;28;20047;-76
2022/07/27 09:30:20;;;;;;;7.10;1.60;;;19.00;92.00;;;;;;5075706;28;20381;-78
2022/07/27 09:33:03;;;;;;;6.25;1.42;;;18.50;95.90;;;;;;5073690;28;20055;-75
2022/07/27 09:35:34;;;;;;;7.57;1.70;;;18.10;99.90;;;;;;5093348;28;20036;-75
2022/07/27 09:38:19;;;;;;;5.43;1.40;;;17.90;99.90;;;;;;5074816;28;20054;-75
2022/07/27 09:40:47;;;;;;;6.45;1.60;;;17.70;99.90;;;;;;5085758;28;20478;-74
2022/07/27 09:43:13;;;;;;;7.10;1.60;;;17.70;99.90;;;;;;5077333;28;20066;-74
2022/07/27 09:45:44;;;;;;;7.78;1.52;;;17.60;99.90;;;;;;5058840;28;20052;-75
2022/07/27 09:48:09;;;;;;;7.43;1.98;;;17.60;99.90;;;;;;5059491;28;20558;-75
2022/07/27 09:50:39;;;;;;;7.32;1.48;;;17.70;99.90;;;;;;5093486;28;20079;-75
2022/07/27 09:53:35;;;;;;;5.68;1.38;;;17.70;99.90;;;;;;5074345;28;20040;-75
2022/07/27 09:56:05;;;;;;;5.63;1.38;;;17.80;99.90;;;;;;5062298;28;20060;-75
2022/07/27 09:58:41;;;;;;;7.78;1.73;;;17.90;99.90;;;;;;5074730;28;20051;-75
2022/07/27 10:01:13;;;;;;;5.47;1.55;;;18.00;99.90;;;;;;5061810;28;20052;-75
2022/07/27 10:03:40;;;;;;;6.28;1.60;;;18.20;99.90;;;;;;5074202;28;20044;-73
2022/07/27 10:06:08;;;;;;;8.48;1.90;;;18.30;99.90;;;;;;5058229;28;20055;-73
2022/07/27 10:08:35;;;;;;;7.00;1.58;;;18.30;99.90;;;;;;5058063;28;20132;-76
2022/07/27 10:11:01;;;;;;;7.13;1.58;;;18.40;99.90;;;;;;5071907;28;20063;-77
2022/07/27 10:13:27;;;;;;;7.60;1.50;;;18.50;99.90;;;;;;5069165;28;20048;-75
2022/07/27 10:15:53;;;;;;;7.53;1.63;;;18.70;99.90;;;;;;5096371;28;20445;-74
2022/07/27 10:18:51;;;;;;;5.85;1.40;;;18.80;99.90;;;;;;5094638;28;20040;-75
2022/07/27 10:21:17;;;;;;;7.47;1.55;;;18.90;99.00;;;;;;5078885;28;20398;-75
2022/07/27 10:24:01;;;;;;;6.25;1.70;;;19.10;98.70;;;;;;5067552;28;20063;-73
2022/07/27 10:26:31;;;;;;;8.27;1.55;;;19.30;98.70;;;;;;5077765;28;20052;-75
2022/07/27 10:29:05;;;;;;;6.68;1.55;;;19.50;96.80;;;;;;5078770;28;20058;-76
2022/07/27 10:31:34;;;;;;;6.35;1.40;;;19.70;97.70;;;;;;5078499;28;20511;-74
2022/07/27 10:34:02;;;;;;;6.40;1.60;;;19.90;96.50;;;;;;5077228;28;20522;-75
2022/07/27 10:36:28;;;;;;;5.82;1.20;;;20.00;95.60;;;;;;5061312;28;20538;-75
2022/07/27 10:38:57;;;;;;;7.35;1.35;;;20.10;95.40;;;;;;5078545;28;20119;-73
2022/07/27 10:41:25;;;;;;;5.22;1.30;;;20.40;93.40;;;;;;5077962;28;20053;-76
2022/07/27 10:44:13;;;;;;;7.47;1.60;;;20.40;91.90;;;;;;5078329;28;20502;-74
2022/07/27 10:46:51;;;;;;;5.88;1.30;;;20.50;90.10;;;;;;5073626;28;20056;-74
2022/07/27 10:49:26;;;;;;;6.20;1.20;;;20.50;90.50;;;;;;5057508;28;20045;-74
2022/07/27 10:51:53;;;;;;;5.00;1.30;;;20.60;90.00;;;;;;5060781;28;20052;-73
2022/07/27 10:54:36;;;;;;;4.25;1.20;;;20.60;84.80;;;;;;5061795;28;20044;-74
2022/07/27 10:57:04;;;;;;;5.68;1.30;;;20.50;84.70;;;;;;5077922;28;20498;-75
2022/07/27 10:59:39;;;;;;;6.63;1.30;;;20.60;86.40;;;;;;5077940;28;20042;-76
2022/07/27 11:02:08;;;;;;;5.53;1.60;;;20.80;81.10;;;;;;5077903;28;20084;-77
2022/07/27 11:04:42;;;;;;;5.53;1.30;;;20.80;80.50;;;;;;5076985;28;20044;-76
2022/07/27 11:07:08;;;;;;;6.07;1.30;;;20.90;77.70;;;;;;5076949;28;20059;-75
2022/07/27 11:09:45;;;;;;;7.28;1.40;;;20.90;78.50;;;;;;5080615;28;20044;-73
2022/07/27 11:12:12;;;;;;;5.15;1.20;;;21.20;77.30;;;;;;5077778;28;20048;-74
2022/07/27 11:14:46;;;;;;;6.68;1.38;;;21.50;77.30;;;;;;5061187;28;20395;-73
2022/07/27 11:17:14;;;;;;;5.70;1.30;;;21.50;76.80;;;;;;5070227;28;20083;-78
2022/07/27 11:19:40;;;;;;;5.78;1.20;;;21.40;75.40;;;;;;5062088;28;20105;-73
2022/07/27 11:22:05;;;;;;;5.97;1.33;;;21.40;75.20;;;;;;5095696;28;20044;-73
2022/07/27 11:24:33;;;;;;;5.55;1.20;;;21.30;73.60;;;;;;5077423;28;20100;-76
2022/07/27 11:26:58;;;;;;;4.75;1.30;;;21.30;74.80;;;;;;5077909;28;20052;-75
2022/07/27 11:29:24;;;;;;;5.93;1.25;;;21.10;74.00;;;;;;5076860;28;20055;-74
2022/07/27 11:31:53;;;;;;;5.40;1.23;;;21.00;75.00;;;;;;5088101;28;20055;-73
2022/07/27 11:34:30;;;;;;;6.82;1.45;;;20.90;74.80;;;;;;5075512;28;20056;-75
2022/07/27 11:37:01;;;;;;;5.50;1.20;;;20.80;76.50;;;;;;5077852;28;20117;-75
2022/07/27 11:39:30;;;;;;;6.90;1.30;;;20.90;77.60;;;;;;5076623;28;20479;-75
2022/07/27 11:41:58;;;;;;;5.82;1.30;;;20.80;76.60;;;;;;5064809;28;20051;-75
2022/07/27 11:44:25;;;;;;;6.13;1.30;;;20.70;76.80;;;;;;5073657;28;20106;-75
2022/07/27 11:46:52;;;;;;;5.53;1.20;;;20.70;78.30;;;;;;5077497;28;20051;-74
2022/07/27 11:49:30;;;;;;;6.22;1.38;;;20.70;79.00;;;;;;5059763;28;20118;-74
2022/07/27 11:52:00;;;;;;;6.40;1.38;;;20.70;78.10;;;;;;5077380;28;20048;-74
2022/07/27 11:54:28;;;;;;;5.85;1.40;;;20.60;76.80;;;;;;5077164;28;20047;-74
2022/07/27 11:56:56;;;;;;;5.40;1.30;;;20.60;77.50;;;;;;5094732;28;20043;-76
2022/07/27 11:59:36;;;;;;;4.82;1.10;;;20.70;77.10;;;;;;5076976;28;20474;-76
2022/07/27 12:02:12;;;;;;;4.95;1.20;;;20.80;75.80;;;;;;5062789;28;20368;-75
2022/07/27 12:04:43;;;;;;;5.95;1.30;;;21.00;75.30;;;;;;5076205;28;20072;-75
2022/07/27 12:07:10;;;;;;;4.80;1.25;;;21.00;74.40;;;;;;5076373;28;20525;-75
2022/07/27 12:09:42;;;;;;;4.78;1.40;;;21.30;75.10;;;;;;5077086;28;20487;-75
2022/07/27 12:12:15;;;;;;;4.97;1.40;;;21.60;74.00;;;;;;5077040;28;20395;-75
2022/07/27 12:14:42;;;;;;;4.50;1.30;;;21.80;72.20;;;;;;5087297;28;20135;-76
2022/07/27 12:17:28;;;;;;;4.25;1.10;;;21.90;68.30;;;;;;5069914;28;20051;-73
2022/07/27 12:20:04;;;;;;;5.55;1.20;;;21.80;69.40;;;;;;5076712;28;20036;-74
2022/07/27 12:22:39;;;;;;;5.80;1.45;;;21.50;68.60;;;;;;5075019;28;20487;-74
2022/07/27 12:25:17;;;;;;;5.65;1.30;;;21.00;70.40;;;;;;5060178;28;20123;-74
2022/07/27 12:28:06;;;;;;;7.00;1.58;;;20.80;70.90;;;;;;5061316;28;20052;-74
2022/07/27 12:30:39;;;;;;;5.00;1.20;;;20.60;71.30;;;;;;5079150;28;20052;-78
2022/07/27 12:33:29;;;;;;;5.28;1.27;;;20.40;71.80;;;;;;5068854;28;20052;-76
2022/07/27 12:35:57;;;;;;;4.43;1.10;;;20.30;70.20;;;;;;5062803;28;20056;-74
2022/07/27 12:38:23;;;;;;;6.40;1.20;;;20.20;72.50;;;;;;5057714;28;20042;-75
2022/07/27 12:40:57;;;;;;;6.05;1.40;;;20.10;73.30;;;;;;5073920;28;20394;-74
2022/07/27 12:43:25;;;;;;;5.75;1.20;;;20.20;72.20;;;;;;5056446;28;20048;-77
2022/07/27 12:45:53;;;;;;;3.88;1.00;;;20.10;72.30;;;;;;5076678;28;20077;-75
2022/07/27 12:48:40;;;;;;;4.30;1.10;;;20.20;72.00;;;;;;5057992;28;20054;-74
2022/07/27 12:51:07;;;;;;;3.92;1.02;;;20.30;72.10;;;;;;5075954;28;20135;-74
2022/07/27 12:53:36;;;;;;;4.10;1.10;;;20.30;70.90;;;;;;5028354;28;20538;-74
2022/07/27 12:56:11;;;;;;;3.47;1.08;;;20.40;71.10;;;;;;5076094;28;20051;-77